sensor_id;sensor_type;location;lat;lon;timestamp;temperature;humidity
16263;DHT22;8239;48.594;8.598;2022-10-04T00:02:20;4.00;99.90
16263;DHT22;8239;48.594;8.598;2022-10-04T00:04:53;4.10;99.90
16263;DHT22;8239;48.594;8.598;2022-10-04T00:07:28;4.10;99.90
16263;DHT22;8239;48.594;8.598;2022-10-04T00:09:59;4.10;99.90
16263;DHT22;8239;48.594;8.598;2022-10-04T00:12:35;4.10;99.90
16263;DHT22;8239;48.594;8.598;2022-10-04T00:15:14;4.10;99.90
16263;DHT22;8239;48.594;8.598;2022-10-04T00:17:43;4.10;99.90
16263;DHT22;8239;48.594;8.598;2022-10-04T00:21:01;4.20;99.90
16263;DHT22;8239;48.594;8.598;2022-10-04T00:23:45;4.20;99.90
16263;DHT22;8239;48.594;8.598;2022-10-04T00:29:30;4.20;99.90
16263;DHT22;8239;48.594;8.598;2022-10-04T00:32:23;4.30;99.90
16263;DHT22;8239;48.594;8.598;2022-10-04T00:34:51;4.30;99.90
16263;DHT22;8239;48.594;8.598;2022-10-04T00:37:19;4.30;99.90
16263;DHT22;8239;48.594;8.598;2022-10-04T00:39:56;4.20;99.90
16263;DHT22;8239;48.594;8.598;2022-10-04T00:42:37;4.20;99.90
16263;DHT22;8239;48.594;8.598;2022-10-04T00:45:25;4.20;99.90
16263;DHT22;8239;48.594;8.598;2022-10-04T00:48:26;4.20;99.90
16263;DHT22;8239;48.594;8.598;2022-10-04T00:50:57;4.10;99.90
16263;DHT22;8239;48.594;8.598;2022-10-04T00:53:39;4.10;99.90
16263;DHT22;8239;48.594;8.598;2022-10-04T00:56:10;4.00;99.90
16263;DHT22;8239;48.594;8.598;2022-10-04T00:58:48;4.00;99.90
16263;DHT22;8239;48.594;8.598;2022-10-04T01:01:20;3.90;99.90
16263;DHT22;8239;48.594;8.598;2022-10-04T01:03:50;3.90;99.90
16263;DHT22;8239;48.594;8.598;2022-10-04T01:06:19;3.90;99.90
16263;DHT22;8239;48.594;8.598;2022-10-04T01:08:49;3.90;99.90
16263;DHT22;8239;48.594;8.598;2022-10-04T01:11:19;3.80;99.90
16263;DHT22;8239;48.594;8.598;2022-10-04T01:13:50;3.80;99.90
16263;DHT22;8239;48.594;8.598;2022-10-04T01:16:23;3.90;99.90
16263;DHT22;8239;48.594;8.598;2022-10-04T01:18:51;3.90;99.90
16263;DHT22;8239;48.594;8.598;2022-10-04T01:21:25;3.90;99.90
16263;DHT22;8239;48.594;8.598;2022-10-04T01:24:16;3.80;99.90
16263;DHT22;8239;48.594;8.598;2022-10-04T01:26:45;3.80;99.90
16263;DHT22;8239;48.594;8.598;2022-10-04T01:29:14;3.80;99.90
16263;DHT22;8239;48.594;8.598;2022-10-04T01:31:44;3.70;99.90
16263;DHT22;8239;48.594;8.598;2022-10-04T01:34:15;3.70;99.90
16263;DHT22;8239;48.594;8.598;2022-10-04T01:36:43;3.70;99.90
16263;DHT22;8239;48.594;8.598;2022-10-04T01:39:13;3.70;99.90
16263;DHT22;8239;48.594;8.598;2022-10-04T01:41:49;3.60;99.90
16263;DHT22;8239;48.594;8.598;2022-10-04T01:44:23;3.60;99.90
16263;DHT22;8239;48.594;8.598;2022-10-04T01:46:57;3.60;99.90
16263;DHT22;8239;48.594;8.598;2022-10-04T01:49:27;3.60;99.90
16263;DHT22;8239;48.594;8.598;2022-10-04T01:52:01;3.60;99.90
16263;DHT22;8239;48.594;8.598;2022-10-04T01:54:35;3.60;99.90
16263;DHT22;8239;48.594;8.598;2022-10-04T01:57:10;3.60;99.90
16263;DHT22;8239;48.594;8.598;2022-10-04T01:59:43;3.60;99.90
16263;DHT22;8239;48.594;8.598;2022-10-04T02:02:19;3.60;99.90
16263;DHT22;8239;48.594;8.598;2022-10-04T02:04:50;3.60;99.90
16263;DHT22;8239;48.594;8.598;2022-10-04T02:07:19;3.60;99.90
16263;DHT22;8239;48.594;8.598;2022-10-04T02:09:48;3.60;99.90
16263;DHT22;8239;48.594;8.598;2022-10-04T02:12:18;3.50;99.90
16263;DHT22;8239;48.594;8.598;2022-10-04T02:14:47;3.50;99.90
16263;DHT22;8239;48.594;8.598;2022-10-04T02:17:19;3.50;99.90
16263;DHT22;8239;48.594;8.598;2022-10-04T02:19:47;3.50;99.90
16263;DHT22;8239;48.594;8.598;2022-10-04T02:22:15;3.50;99.90
16263;DHT22;8239;48.594;8.598;2022-10-04T02:24:45;3.50;99.90
16263;DHT22;8239;48.594;8.598;2022-10-04T02:27:13;3.50;99.90
16263;DHT22;8239;48.594;8.598;2022-10-04T02:29:41;3.50;99.90
16263;DHT22;8239;48.594;8.598;2022-10-04T02:32:09;3.50;99.90
16263;DHT22;8239;48.594;8.598;2022-10-04T02:34:55;3.40;99.90
16263;DHT22;8239;48.594;8.598;2022-10-04T02:37:23;3.40;99.90
16263;DHT22;8239;48.594;8.598;2022-10-04T02:39:53;3.40;99.90
16263;DHT22;8239;48.594;8.598;2022-10-04T02:42:26;3.40;99.90
16263;DHT22;8239;48.594;8.598;2022-10-04T02:45:05;3.40;99.90
16263;DHT22;8239;48.594;8.598;2022-10-04T02:47:39;3.40;99.90
16263;DHT22;8239;48.594;8.598;2022-10-04T02:50:18;3.40;99.90
16263;DHT22;8239;48.594;8.598;2022-10-04T02:52:50;3.40;99.90
16263;DHT22;8239;48.594;8.598;2022-10-04T02:55:21;3.40;99.90
16263;DHT22;8239;48.594;8.598;2022-10-04T02:57:49;3.40;99.90
16263;DHT22;8239;48.594;8.598;2022-10-04T03:00:20;3.40;99.90
16263;DHT22;8239;48.594;8.598;2022-10-04T03:03:18;3.40;99.90
16263;DHT22;8239;48.594;8.598;2022-10-04T03:05:58;3.50;99.90
16263;DHT22;8239;48.594;8.598;2022-10-04T03:08:29;3.50;99.90
16263;DHT22;8239;48.594;8.598;2022-10-04T03:10:57;3.50;99.90
16263;DHT22;8239;48.594;8.598;2022-10-04T03:13:26;3.50;99.90
16263;DHT22;8239;48.594;8.598;2022-10-04T03:15:54;3.50;99.90
16263;DHT22;8239;48.594;8.598;2022-10-04T03:18:22;3.50;99.90
16263;DHT22;8239;48.594;8.598;2022-10-04T03:20:49;3.50;99.90
16263;DHT22;8239;48.594;8.598;2022-10-04T03:23:18;3.50;99.90
16263;DHT22;8239;48.594;8.598;2022-10-04T03:25:51;3.40;99.90
16263;DHT22;8239;48.594;8.598;2022-10-04T03:28:19;3.40;99.90
16263;DHT22;8239;48.594;8.598;2022-10-04T03:30:47;3.40;99.90
16263;DHT22;8239;48.594;8.598;2022-10-04T03:33:19;3.40;99.90
16263;DHT22;8239;48.594;8.598;2022-10-04T03:35:49;3.40;99.90
16263;DHT22;8239;48.594;8.598;2022-10-04T03:38:18;3.40;99.90
16263;DHT22;8239;48.594;8.598;2022-10-04T03:40:50;3.40;99.90
16263;DHT22;8239;48.594;8.598;2022-10-04T03:43:21;3.40;99.90
16263;DHT22;8239;48.594;8.598;2022-10-04T03:45:50;3.40;99.90
16263;DHT22;8239;48.594;8.598;2022-10-04T03:48:25;3.30;99.90
16263;DHT22;8239;48.594;8.598;2022-10-04T03:50:53;3.30;99.90
16263;DHT22;8239;48.594;8.598;2022-10-04T03:53:28;3.30;99.90
16263;DHT22;8239;48.594;8.598;2022-10-04T03:55:57;3.30;99.90
16263;DHT22;8239;48.594;8.598;2022-10-04T03:58:27;3.30;99.90
16263;DHT22;8239;48.594;8.598;2022-10-04T04:01:13;3.30;99.90
16263;DHT22;8239;48.594;8.598;2022-10-04T04:03:52;3.40;99.90
16263;DHT22;8239;48.594;8.598;2022-10-04T04:06:21;3.30;99.90
16263;DHT22;8239;48.594;8.598;2022-10-04T04:08:52;3.30;99.90
16263;DHT22;8239;48.594;8.598;2022-10-04T04:11:23;3.40;99.90
16263;DHT22;8239;48.594;8.598;2022-10-04T04:13:57;3.30;99.90
16263;DHT22;8239;48.594;8.598;2022-10-04T04:16:26;3.30;99.90
16263;DHT22;8239;48.594;8.598;2022-10-04T04:19:01;3.30;99.90
16263;DHT22;8239;48.594;8.598;2022-10-04T04:21:29;3.30;99.90
16263;DHT22;8239;48.594;8.598;2022-10-04T04:23:58;3.30;99.90
16263;DHT22;8239;48.594;8.598;2022-10-04T04:26:34;3.30;99.90
16263;DHT22;8239;48.594;8.598;2022-10-04T04:29:07;3.30;99.90
16263;DHT22;8239;48.594;8.598;2022-10-04T04:31:39;3.30;99.90
16263;DHT22;8239;48.594;8.598;2022-10-04T04:34:17;3.30;99.90
16263;DHT22;8239;48.594;8.598;2022-10-04T04:36:45;3.30;99.90
16263;DHT22;8239;48.594;8.598;2022-10-04T04:39:18;3.20;99.90
16263;DHT22;8239;48.594;8.598;2022-10-04T04:42:05;3.20;99.90
16263;DHT22;8239;48.594;8.598;2022-10-04T04:44:36;3.20;99.90
16263;DHT22;8239;48.594;8.598;2022-10-04T04:47:05;3.20;99.90
16263;DHT22;8239;48.594;8.598;2022-10-04T04:49:38;3.10;99.90
16263;DHT22;8239;48.594;8.598;2022-10-04T04:52:13;3.00;99.90
16263;DHT22;8239;48.594;8.598;2022-10-04T04:54:43;3.00;99.90
16263;DHT22;8239;48.594;8.598;2022-10-04T04:57:18;2.90;99.90
16263;DHT22;8239;48.594;8.598;2022-10-04T04:59:47;2.80;99.90
16263;DHT22;8239;48.594;8.598;2022-10-04T05:02:33;2.80;99.90
16263;DHT22;8239;48.594;8.598;2022-10-04T05:05:21;2.70;99.90
16263;DHT22;8239;48.594;8.598;2022-10-04T05:07:49;2.70;99.90
16263;DHT22;8239;48.594;8.598;2022-10-04T05:10:30;2.60;99.90
16263;DHT22;8239;48.594;8.598;2022-10-04T05:12:58;2.60;99.90
16263;DHT22;8239;48.594;8.598;2022-10-04T05:15:30;2.60;99.90
16263;DHT22;8239;48.594;8.598;2022-10-04T05:17:58;2.50;99.90
16263;DHT22;8239;48.594;8.598;2022-10-04T05:20:27;2.60;99.90
16263;DHT22;8239;48.594;8.598;2022-10-04T05:22:57;2.60;99.90
16263;DHT22;8239;48.594;8.598;2022-10-04T05:25:28;2.60;99.90
16263;DHT22;8239;48.594;8.598;2022-10-04T05:27:55;2.50;99.90
16263;DHT22;8239;48.594;8.598;2022-10-04T05:30:36;2.60;99.90
16263;DHT22;8239;48.594;8.598;2022-10-04T05:33:07;2.60;99.90
16263;DHT22;8239;48.594;8.598;2022-10-04T05:35:42;2.60;99.90
16263;DHT22;8239;48.594;8.598;2022-10-04T05:38:18;2.60;99.90
16263;DHT22;8239;48.594;8.598;2022-10-04T05:40:56;2.60;99.90
16263;DHT22;8239;48.594;8.598;2022-10-04T05:43:33;2.60;99.90
16263;DHT22;8239;48.594;8.598;2022-10-04T05:46:14;2.70;99.90
16263;DHT22;8239;48.594;8.598;2022-10-04T05:48:44;2.70;99.90
16263;DHT22;8239;48.594;8.598;2022-10-04T05:51:17;2.70;99.90
16263;DHT22;8239;48.594;8.598;2022-10-04T05:53:44;2.80;99.90
16263;DHT22;8239;48.594;8.598;2022-10-04T05:56:26;2.80;99.90
16263;DHT22;8239;48.594;8.598;2022-10-04T05:59:05;2.80;99.90
16263;DHT22;8239;48.594;8.598;2022-10-04T06:01:40;2.90;99.90
16263;DHT22;8239;48.594;8.598;2022-10-04T06:04:27;3.00;99.90
16263;DHT22;8239;48.594;8.598;2022-10-04T06:07:00;3.20;99.90
16263;DHT22;8239;48.594;8.598;2022-10-04T06:09:49;3.50;99.90
16263;DHT22;8239;48.594;8.598;2022-10-04T06:12:27;3.70;99.90
16263;DHT22;8239;48.594;8.598;2022-10-04T06:15:37;3.80;99.90
16263;DHT22;8239;48.594;8.598;2022-10-04T06:21:19;3.90;99.90
16263;DHT22;8239;48.594;8.598;2022-10-04T06:23:55;4.00;99.90
16263;DHT22;8239;48.594;8.598;2022-10-04T06:26:28;4.10;99.90
16263;DHT22;8239;48.594;8.598;2022-10-04T06:29:02;4.20;99.90
16263;DHT22;8239;48.594;8.598;2022-10-04T06:32:06;4.40;99.90
16263;DHT22;8239;48.594;8.598;2022-10-04T06:38:02;4.80;99.90
16263;DHT22;8239;48.594;8.598;2022-10-04T06:41:06;5.00;99.90
16263;DHT22;8239;48.594;8.598;2022-10-04T06:46:45;5.20;99.90
16263;DHT22;8239;48.594;8.598;2022-10-04T06:49:24;5.40;99.90
16263;DHT22;8239;48.594;8.598;2022-10-04T06:52:13;5.60;99.90
16263;DHT22;8239;48.594;8.598;2022-10-04T06:55:04;5.80;99.90
16263;DHT22;8239;48.594;8.598;2022-10-04T06:58:11;6.00;99.90
16263;DHT22;8239;48.594;8.598;2022-10-04T07:00:51;6.20;99.90
16263;DHT22;8239;48.594;8.598;2022-10-04T07:03:24;6.50;99.90
16263;DHT22;8239;48.594;8.598;2022-10-04T07:05:54;6.70;99.90
16263;DHT22;8239;48.594;8.598;2022-10-04T07:08:27;6.90;99.90
16263;DHT22;8239;48.594;8.598;2022-10-04T07:10:59;7.00;99.90
16263;DHT22;8239;48.594;8.598;2022-10-04T07:13:40;7.00;99.90
16263;DHT22;8239;48.594;8.598;2022-10-04T07:16:20;7.10;99.90
16263;DHT22;8239;48.594;8.598;2022-10-04T07:18:56;7.10;99.90
16263;DHT22;8239;48.594;8.598;2022-10-04T07:21:27;7.20;99.90
16263;DHT22;8239;48.594;8.598;2022-10-04T07:24:00;7.30;99.90
16263;DHT22;8239;48.594;8.598;2022-10-04T07:26:33;7.30;99.90
16263;DHT22;8239;48.594;8.598;2022-10-04T07:29:11;7.30;99.90
16263;DHT22;8239;48.594;8.598;2022-10-04T07:31:52;7.30;99.90
16263;DHT22;8239;48.594;8.598;2022-10-04T07:34:30;7.30;99.90
16263;DHT22;8239;48.594;8.598;2022-10-04T07:37:00;7.30;99.90
16263;DHT22;8239;48.594;8.598;2022-10-04T07:39:42;7.30;99.90
16263;DHT22;8239;48.594;8.598;2022-10-04T07:42:18;7.40;99.90
16263;DHT22;8239;48.594;8.598;2022-10-04T07:44:59;7.50;99.90
16263;DHT22;8239;48.594;8.598;2022-10-04T07:47:30;7.80;99.90
16263;DHT22;8239;48.594;8.598;2022-10-04T07:49:57;8.00;99.90
16263;DHT22;8239;48.594;8.598;2022-10-04T07:52:56;8.40;99.90
16263;DHT22;8239;48.594;8.598;2022-10-04T07:55:27;8.90;99.90
16263;DHT22;8239;48.594;8.598;2022-10-04T07:58:13;9.40;99.90
16263;DHT22;8239;48.594;8.598;2022-10-04T08:00:50;10.10;99.90
16263;DHT22;8239;48.594;8.598;2022-10-04T08:06:15;11.50;99.90
16263;DHT22;8239;48.594;8.598;2022-10-04T08:09:04;12.20;99.90
16263;DHT22;8239;48.594;8.598;2022-10-04T08:11:41;12.70;99.90
16263;DHT22;8239;48.594;8.598;2022-10-04T08:14:24;13.10;99.90
16263;DHT22;8239;48.594;8.598;2022-10-04T08:17:11;13.50;99.90
16263;DHT22;8239;48.594;8.598;2022-10-04T08:19:45;13.90;99.90
16263;DHT22;8239;48.594;8.598;2022-10-04T08:22:49;14.10;99.90
16263;DHT22;8239;48.594;8.598;2022-10-04T08:25:21;14.20;99.90
16263;DHT22;8239;48.594;8.598;2022-10-04T08:28:01;14.20;99.90
16263;DHT22;8239;48.594;8.598;2022-10-04T08:31:07;14.30;99.90
16263;DHT22;8239;48.594;8.598;2022-10-04T08:33:55;14.90;99.90
16263;DHT22;8239;48.594;8.598;2022-10-04T08:36:35;16.60;99.90
16263;DHT22;8239;48.594;8.598;2022-10-04T08:39:18;18.60;99.90
16263;DHT22;8239;48.594;8.598;2022-10-04T08:42:33;20.70;99.90
16263;DHT22;8239;48.594;8.598;2022-10-04T08:45:42;22.40;93.20
16263;DHT22;8239;48.594;8.598;2022-10-04T08:51:54;24.80;72.60
16263;DHT22;8239;48.594;8.598;2022-10-04T08:58:00;26.10;65.50
16263;DHT22;8239;48.594;8.598;2022-10-04T09:00:39;27.00;62.20
16263;DHT22;8239;48.594;8.598;2022-10-04T09:06:42;28.80;54.80
16263;DHT22;8239;48.594;8.598;2022-10-04T09:12:41;30.50;45.90
16263;DHT22;8239;48.594;8.598;2022-10-04T09:15:24;30.90;45.70
16263;DHT22;8239;48.594;8.598;2022-10-04T09:18:03;31.30;45.40
16263;DHT22;8239;48.594;8.598;2022-10-04T09:20:46;31.50;45.00
16263;DHT22;8239;48.594;8.598;2022-10-04T09:23:44;31.90;42.80
16263;DHT22;8239;48.594;8.598;2022-10-04T09:26:20;32.00;42.40
16263;DHT22;8239;48.594;8.598;2022-10-04T09:29:24;31.30;42.60
16263;DHT22;8239;48.594;8.598;2022-10-04T09:35:02;29.10;44.50
16263;DHT22;8239;48.594;8.598;2022-10-04T09:37:46;28.30;46.30
16263;DHT22;8239;48.594;8.598;2022-10-04T09:41:00;27.80;45.90
16263;DHT22;8239;48.594;8.598;2022-10-04T09:44:05;26.90;47.80
16263;DHT22;8239;48.594;8.598;2022-10-04T09:46:56;26.20;49.20
16263;DHT22;8239;48.594;8.598;2022-10-04T09:49:51;26.40;50.80
16263;DHT22;8239;48.594;8.598;2022-10-04T09:52:35;27.30;51.50
16263;DHT22;8239;48.594;8.598;2022-10-04T09:55:41;28.70;49.40
16263;DHT22;8239;48.594;8.598;2022-10-04T09:58:33;29.70;47.20
16263;DHT22;8239;48.594;8.598;2022-10-04T10:01:09;29.80;45.30
16263;DHT22;8239;48.594;8.598;2022-10-04T10:04:08;29.10;43.60
16263;DHT22;8239;48.594;8.598;2022-10-04T10:07:07;28.70;46.60
16263;DHT22;8239;48.594;8.598;2022-10-04T10:09:44;29.10;44.20
16263;DHT22;8239;48.594;8.598;2022-10-04T10:15:52;28.80;46.00
16263;DHT22;8239;48.594;8.598;2022-10-04T10:18:30;28.80;45.30
16263;DHT22;8239;48.594;8.598;2022-10-04T10:21:18;28.50;45.70
16263;DHT22;8239;48.594;8.598;2022-10-04T10:24:07;28.40;47.20
16263;DHT22;8239;48.594;8.598;2022-10-04T10:26:53;28.40;46.10
16263;DHT22;8239;48.594;8.598;2022-10-04T10:29:45;28.70;44.60
16263;DHT22;8239;48.594;8.598;2022-10-04T10:32:51;29.20;45.10
16263;DHT22;8239;48.594;8.598;2022-10-04T10:35:25;29.80;43.00
16263;DHT22;8239;48.594;8.598;2022-10-04T10:38:28;30.90;43.80
16263;DHT22;8239;48.594;8.598;2022-10-04T10:44:14;32.30;41.90
16263;DHT22;8239;48.594;8.598;2022-10-04T10:46:56;32.40;39.40
16263;DHT22;8239;48.594;8.598;2022-10-04T10:49:41;32.80;41.60
16263;DHT22;8239;48.594;8.598;2022-10-04T10:55:40;32.20;40.90
16263;DHT22;8239;48.594;8.598;2022-10-04T10:58:36;32.20;39.70
16263;DHT22;8239;48.594;8.598;2022-10-04T11:01:40;31.00;39.90
16263;DHT22;8239;48.594;8.598;2022-10-04T11:04:27;30.20;42.70
16263;DHT22;8239;48.594;8.598;2022-10-04T11:07:37;30.20;42.50
16263;DHT22;8239;48.594;8.598;2022-10-04T11:13:55;31.30;41.80
16263;DHT22;8239;48.594;8.598;2022-10-04T11:16:49;31.80;40.30
16263;DHT22;8239;48.594;8.598;2022-10-04T11:28:45;31.80;40.20
16263;DHT22;8239;48.594;8.598;2022-10-04T11:34:57;31.70;41.90
16263;DHT22;8239;48.594;8.598;2022-10-04T11:37:42;31.70;42.20
16263;DHT22;8239;48.594;8.598;2022-10-04T11:40:27;31.10;41.70
16263;DHT22;8239;48.594;8.598;2022-10-04T11:43:14;31.00;42.00
16263;DHT22;8239;48.594;8.598;2022-10-04T11:46:08;30.80;43.60
16263;DHT22;8239;48.594;8.598;2022-10-04T11:48:44;30.80;42.80
16263;DHT22;8239;48.594;8.598;2022-10-04T11:51:59;31.30;43.70
16263;DHT22;8239;48.594;8.598;2022-10-04T11:57:51;31.80;41.20
16263;DHT22;8239;48.594;8.598;2022-10-04T12:00:21;31.80;40.80
16263;DHT22;8239;48.594;8.598;2022-10-04T12:03:20;31.70;41.10
16263;DHT22;8239;48.594;8.598;2022-10-04T12:06:12;32.00;41.30
16263;DHT22;8239;48.594;8.598;2022-10-04T12:08:59;32.40;40.40
16263;DHT22;8239;48.594;8.598;2022-10-04T12:11:52;33.00;39.70
16263;DHT22;8239;48.594;8.598;2022-10-04T12:17:59;33.30;36.70
16263;DHT22;8239;48.594;8.598;2022-10-04T12:20:55;33.80;36.50
16263;DHT22;8239;48.594;8.598;2022-10-04T12:23:43;33.80;36.70
16263;DHT22;8239;48.594;8.598;2022-10-04T12:26:44;33.90;36.30
16263;DHT22;8239;48.594;8.598;2022-10-04T12:29:35;34.10;36.50
16263;DHT22;8239;48.594;8.598;2022-10-04T12:32:11;34.20;34.10
16263;DHT22;8239;48.594;8.598;2022-10-04T12:34:47;33.90;34.70
16263;DHT22;8239;48.594;8.598;2022-10-04T18:39:47;10.20;99.90
16263;DHT22;8239;48.594;8.598;2022-10-04T18:42:19;10.10;99.90
16263;DHT22;8239;48.594;8.598;2022-10-04T18:44:56;10.10;99.90
16263;DHT22;8239;48.594;8.598;2022-10-04T18:47:32;10.10;99.90
16263;DHT22;8239;48.594;8.598;2022-10-04T18:50:15;10.00;99.90
16263;DHT22;8239;48.594;8.598;2022-10-04T18:52:52;10.00;99.90
16263;DHT22;8239;48.594;8.598;2022-10-04T18:55:29;10.00;99.90
16263;DHT22;8239;48.594;8.598;2022-10-04T18:58:08;9.90;99.90
16263;DHT22;8239;48.594;8.598;2022-10-04T19:01:03;9.90;99.90
16263;DHT22;8239;48.594;8.598;2022-10-04T19:03:56;9.80;99.90
16263;DHT22;8239;48.594;8.598;2022-10-04T19:06:28;9.80;99.90
16263;DHT22;8239;48.594;8.598;2022-10-04T19:09:00;9.70;99.90
16263;DHT22;8239;48.594;8.598;2022-10-04T19:11:36;9.70;99.90
16263;DHT22;8239;48.594;8.598;2022-10-04T19:14:12;9.60;99.90
16263;DHT22;8239;48.594;8.598;2022-10-04T19:16:50;9.60;99.90
16263;DHT22;8239;48.594;8.598;2022-10-04T19:19:33;9.50;99.90
16263;DHT22;8239;48.594;8.598;2022-10-04T19:22:07;9.40;99.90
16263;DHT22;8239;48.594;8.598;2022-10-04T19:24:50;9.40;99.90
16263;DHT22;8239;48.594;8.598;2022-10-04T19:27:26;9.30;99.90
16263;DHT22;8239;48.594;8.598;2022-10-04T19:30:13;9.30;99.90
16263;DHT22;8239;48.594;8.598;2022-10-04T19:35:48;9.20;99.90
16263;DHT22;8239;48.594;8.598;2022-10-04T19:38:29;9.10;99.90
16263;DHT22;8239;48.594;8.598;2022-10-04T19:41:05;9.10;99.90
16263;DHT22;8239;48.594;8.598;2022-10-04T19:43:46;9.00;99.90
16263;DHT22;8239;48.594;8.598;2022-10-04T19:46:25;8.90;99.90
16263;DHT22;8239;48.594;8.598;2022-10-04T19:48:54;8.80;99.90
16263;DHT22;8239;48.594;8.598;2022-10-04T19:51:29;8.70;99.90
16263;DHT22;8239;48.594;8.598;2022-10-04T19:54:03;8.70;99.90
16263;DHT22;8239;48.594;8.598;2022-10-04T19:56:37;8.70;99.90
16263;DHT22;8239;48.594;8.598;2022-10-04T19:59:15;8.60;99.90
16263;DHT22;8239;48.594;8.598;2022-10-04T20:01:43;8.60;99.90
16263;DHT22;8239;48.594;8.598;2022-10-04T20:04:12;8.60;99.90
16263;DHT22;8239;48.594;8.598;2022-10-04T20:07:00;8.60;99.90
16263;DHT22;8239;48.594;8.598;2022-10-04T20:09:31;8.50;99.90
16263;DHT22;8239;48.594;8.598;2022-10-04T20:12:00;8.50;99.90
16263;DHT22;8239;48.594;8.598;2022-10-04T20:17:34;8.40;99.90
16263;DHT22;8239;48.594;8.598;2022-10-04T20:20:02;8.30;99.90
16263;DHT22;8239;48.594;8.598;2022-10-04T20:22:54;8.20;99.90
16263;DHT22;8239;48.594;8.598;2022-10-04T20:26:00;8.20;99.90
16263;DHT22;8239;48.594;8.598;2022-10-04T20:28:39;8.10;99.90
16263;DHT22;8239;48.594;8.598;2022-10-04T20:31:07;8.10;99.90
16263;DHT22;8239;48.594;8.598;2022-10-04T20:33:46;8.10;99.90
16263;DHT22;8239;48.594;8.598;2022-10-04T20:42:33;8.20;99.90
16263;DHT22;8239;48.594;8.598;2022-10-04T20:45:04;8.10;99.90
16263;DHT22;8239;48.594;8.598;2022-10-04T20:47:44;8.10;99.90
16263;DHT22;8239;48.594;8.598;2022-10-04T20:50:33;8.00;99.90
16263;DHT22;8239;48.594;8.598;2022-10-04T20:53:03;8.10;99.90
16263;DHT22;8239;48.594;8.598;2022-10-04T20:55:31;8.00;99.90
16263;DHT22;8239;48.594;8.598;2022-10-04T20:58:00;8.00;99.90
16263;DHT22;8239;48.594;8.598;2022-10-04T21:00:31;8.00;99.90
16263;DHT22;8239;48.594;8.598;2022-10-04T21:03:07;7.90;99.90
16263;DHT22;8239;48.594;8.598;2022-10-04T21:05:36;7.80;99.90
16263;DHT22;8239;48.594;8.598;2022-10-04T21:08:27;7.80;99.90
16263;DHT22;8239;48.594;8.598;2022-10-04T21:11:08;7.70;99.90
16263;DHT22;8239;48.594;8.598;2022-10-04T21:13:40;7.70;99.90
16263;DHT22;8239;48.594;8.598;2022-10-04T21:16:07;7.70;99.90
16263;DHT22;8239;48.594;8.598;2022-10-04T21:18:34;7.70;99.90
16263;DHT22;8239;48.594;8.598;2022-10-04T21:21:03;7.70;99.90
16263;DHT22;8239;48.594;8.598;2022-10-04T21:23:31;7.70;99.90
16263;DHT22;8239;48.594;8.598;2022-10-04T21:26:17;7.70;99.90
16263;DHT22;8239;48.594;8.598;2022-10-04T21:28:45;7.60;99.90
16263;DHT22;8239;48.594;8.598;2022-10-04T21:31:12;7.50;99.90
16263;DHT22;8239;48.594;8.598;2022-10-04T21:33:39;7.50;99.90
16263;DHT22;8239;48.594;8.598;2022-10-04T21:36:07;7.50;99.90
16263;DHT22;8239;48.594;8.598;2022-10-04T21:38:34;7.40;99.90
16263;DHT22;8239;48.594;8.598;2022-10-04T21:41:01;7.40;99.90
16263;DHT22;8239;48.594;8.598;2022-10-04T21:43:28;7.30;99.90
16263;DHT22;8239;48.594;8.598;2022-10-04T21:45:55;7.20;99.90
16263;DHT22;8239;48.594;8.598;2022-10-04T21:48:23;7.20;99.90
16263;DHT22;8239;48.594;8.598;2022-10-04T21:50:51;7.10;99.90
16263;DHT22;8239;48.594;8.598;2022-10-04T21:53:20;7.00;99.90
16263;DHT22;8239;48.594;8.598;2022-10-04T21:55:48;6.90;99.90
16263;DHT22;8239;48.594;8.598;2022-10-04T21:58:15;6.80;99.90
16263;DHT22;8239;48.594;8.598;2022-10-04T22:00:42;6.80;99.90
16263;DHT22;8239;48.594;8.598;2022-10-04T22:03:09;6.70;99.90
16263;DHT22;8239;48.594;8.598;2022-10-04T22:05:36;6.70;99.90
16263;DHT22;8239;48.594;8.598;2022-10-04T22:08:03;6.60;99.90
16263;DHT22;8239;48.594;8.598;2022-10-04T22:10:31;6.60;99.90
16263;DHT22;8239;48.594;8.598;2022-10-04T22:12:58;6.60;99.90
16263;DHT22;8239;48.594;8.598;2022-10-04T22:15:26;6.60;99.90
16263;DHT22;8239;48.594;8.598;2022-10-04T22:17:53;6.60;99.90
16263;DHT22;8239;48.594;8.598;2022-10-04T22:20:21;6.60;99.90
16263;DHT22;8239;48.594;8.598;2022-10-04T22:22:49;6.60;99.90
16263;DHT22;8239;48.594;8.598;2022-10-04T22:25:18;6.60;99.90
16263;DHT22;8239;48.594;8.598;2022-10-04T22:27:47;6.50;99.90
16263;DHT22;8239;48.594;8.598;2022-10-04T22:30:20;6.50;99.90
16263;DHT22;8239;48.594;8.598;2022-10-04T22:32:48;6.40;99.90
16263;DHT22;8239;48.594;8.598;2022-10-04T22:35:17;6.40;99.90
16263;DHT22;8239;48.594;8.598;2022-10-04T22:37:45;6.30;99.90
16263;DHT22;8239;48.594;8.598;2022-10-04T22:40:18;6.30;99.90
16263;DHT22;8239;48.594;8.598;2022-10-04T22:42:49;6.30;99.90
16263;DHT22;8239;48.594;8.598;2022-10-04T22:45:22;6.30;99.90
16263;DHT22;8239;48.594;8.598;2022-10-04T22:47:50;6.20;99.90
16263;DHT22;8239;48.594;8.598;2022-10-04T22:50:30;6.20;99.90
16263;DHT22;8239;48.594;8.598;2022-10-04T22:53:00;6.10;99.90
16263;DHT22;8239;48.594;8.598;2022-10-04T22:55:29;6.10;99.90
16263;DHT22;8239;48.594;8.598;2022-10-04T22:57:57;6.00;99.90
16263;DHT22;8239;48.594;8.598;2022-10-04T23:00:24;6.00;99.90
16263;DHT22;8239;48.594;8.598;2022-10-04T23:02:51;5.90;99.90
16263;DHT22;8239;48.594;8.598;2022-10-04T23:05:19;5.90;99.90
16263;DHT22;8239;48.594;8.598;2022-10-04T23:07:47;5.80;99.90
16263;DHT22;8239;48.594;8.598;2022-10-04T23:10:16;5.80;99.90
16263;DHT22;8239;48.594;8.598;2022-10-04T23:12:44;5.70;99.90
16263;DHT22;8239;48.594;8.598;2022-10-04T23:15:17;5.70;99.90
16263;DHT22;8239;48.594;8.598;2022-10-04T23:17:46;5.70;99.90
16263;DHT22;8239;48.594;8.598;2022-10-04T23:20:16;5.70;99.90
16263;DHT22;8239;48.594;8.598;2022-10-04T23:22:46;5.60;99.90
16263;DHT22;8239;48.594;8.598;2022-10-04T23:25:15;5.60;99.90
16263;DHT22;8239;48.594;8.598;2022-10-04T23:27:43;5.60;99.90
16263;DHT22;8239;48.594;8.598;2022-10-04T23:30:15;5.60;99.90
16263;DHT22;8239;48.594;8.598;2022-10-04T23:32:47;5.60;99.90
16263;DHT22;8239;48.594;8.598;2022-10-04T23:35:17;5.60;99.90
16263;DHT22;8239;48.594;8.598;2022-10-04T23:37:45;5.50;99.90
16263;DHT22;8239;48.594;8.598;2022-10-04T23:40:15;5.50;99.90
16263;DHT22;8239;48.594;8.598;2022-10-04T23:42:43;5.50;99.90
16263;DHT22;8239;48.594;8.598;2022-10-04T23:45:17;5.50;99.90
16263;DHT22;8239;48.594;8.598;2022-10-04T23:47:46;5.50;99.90
16263;DHT22;8239;48.594;8.598;2022-10-04T23:50:21;5.50;99.90
16263;DHT22;8239;48.594;8.598;2022-10-04T23:52:49;5.50;99.90
16263;DHT22;8239;48.594;8.598;2022-10-04T23:55:19;5.50;99.90
16263;DHT22;8239;48.594;8.598;2022-10-04T23:57:47;5.50;99.90
